createdAt,value
2023-02-04T00:00:04.430Z,94806.44
2023-02-04T00:02:31.137Z,94801.50
2023-02-04T00:04:57.726Z,94811.44
2023-02-04T00:07:24.374Z,94802.25
2023-02-04T00:09:51.008Z,94788.09
2023-02-04T00:12:17.973Z,94792.66
2023-02-04T00:14:44.590Z,94787.28
2023-02-04T00:17:13.038Z,94761.44
2023-02-04T00:19:42.683Z,94764.13
2023-02-04T00:22:09.882Z,94787.78
2023-02-04T00:24:37.226Z,94781.59
2023-02-04T00:27:05.308Z,94769.06
2023-02-04T00:29:31.963Z,94759.94
2023-02-04T00:31:58.715Z,94783.59
2023-02-04T00:34:25.829Z,94767.97
2023-02-04T00:36:52.480Z,94774.47
2023-02-04T00:39:19.135Z,94759.53
2023-02-04T00:41:45.812Z,94773.28
2023-02-04T00:44:14.177Z,94752.25
2023-02-04T00:46:42.725Z,94758.28
2023-02-04T00:49:10.877Z,94772.34
2023-02-04T00:51:38.858Z,94763.03
2023-02-04T00:54:07.143Z,94751.16
2023-02-04T00:56:34.938Z,94759.44
2023-02-04T00:59:01.643Z,94734.16
2023-02-04T01:01:28.239Z,94749.72
2023-02-04T01:03:54.993Z,94731.06
2023-02-04T01:06:21.571Z,94729.38
2023-02-04T01:08:48.168Z,94726.69
2023-02-04T01:11:14.834Z,94726.75
2023-02-04T01:13:41.536Z,94734.56
2023-02-04T01:16:08.598Z,94727.38
2023-02-04T01:18:35.752Z,94705.78
2023-02-04T01:21:02.463Z,94708.84
2023-02-04T01:23:29.144Z,94690.91
2023-02-04T01:25:55.762Z,94696.84
2023-02-04T01:28:22.425Z,94680.75
2023-02-04T01:30:49.064Z,94689.16
2023-02-04T01:33:15.765Z,94684.56
2023-02-04T01:35:42.375Z,94691.03
2023-02-04T01:38:08.963Z,94678.28
2023-02-04T01:40:35.694Z,94679.25
2023-02-04T01:43:02.352Z,94671.06
2023-02-04T01:45:30.820Z,94673.22
2023-02-04T01:47:57.668Z,94656.66
2023-02-04T01:50:24.363Z,94656.31
2023-02-04T01:52:51.126Z,94666.66
2023-02-04T01:55:21.985Z,94673.69
2023-02-04T01:57:50.914Z,94651.59
2023-02-04T02:00:22.628Z,94660.59
2023-02-04T02:02:51.638Z,94640.44
2023-02-04T02:05:22.271Z,94651.75
2023-02-04T02:07:50.098Z,94665.16
2023-02-04T02:10:18.263Z,94637.31
2023-02-04T02:12:45.993Z,94621.03
2023-02-04T02:15:13.594Z,94632.06
2023-02-04T02:17:40.908Z,94632.00
2023-02-04T02:20:10.451Z,94637.03
2023-02-04T02:22:41.958Z,94633.84
2023-02-04T02:25:14.315Z,94624.44
2023-02-04T02:27:41.098Z,94613.25
2023-02-04T02:30:10.407Z,94605.31
2023-02-04T02:32:38.281Z,94578.19
2023-02-04T02:35:05.740Z,94581.63
2023-02-04T02:37:32.533Z,94579.28
2023-02-04T02:39:59.239Z,94555.63
2023-02-04T02:42:26.187Z,94574.34
2023-02-04T02:44:53.994Z,94569.44
2023-02-04T02:47:22.828Z,94558.56
2023-02-04T02:49:51.558Z,94555.75
2023-02-04T02:52:18.794Z,94543.59
2023-02-04T02:54:46.222Z,94533.84
2023-02-04T02:57:16.479Z,94524.66
2023-02-04T02:59:43.135Z,94534.16
2023-02-04T03:02:13.824Z,94543.81
2023-02-04T03:04:44.383Z,94522.66
2023-02-04T03:07:12.877Z,94521.41
2023-02-04T03:09:39.511Z,94548.69
2023-02-04T03:12:06.703Z,94552.13
2023-02-04T03:14:34.662Z,94554.91
2023-02-04T03:17:04.334Z,94552.22
2023-02-04T03:19:31.026Z,94529.59
2023-02-04T03:21:59.146Z,94541.19
2023-02-04T03:24:26.786Z,94542.09
2023-02-04T03:26:53.544Z,94558.28
2023-02-04T03:29:20.139Z,94542.44
2023-02-04T03:31:46.955Z,94550.78
2023-02-04T03:34:13.609Z,94546.16
2023-02-04T03:36:40.191Z,94525.00
2023-02-04T03:39:06.769Z,94541.81
2023-02-04T03:41:33.385Z,94516.59
2023-02-04T03:43:59.969Z,94531.13
2023-02-04T03:46:27.432Z,94521.94
2023-02-04T03:48:54.338Z,94526.94
2023-02-04T03:51:20.955Z,94519.63
2023-02-04T03:53:47.680Z,94513.09
2023-02-04T03:56:14.259Z,94509.63
2023-02-04T03:58:40.903Z,94506.41
2023-02-04T04:01:07.710Z,94508.63
2023-02-04T04:03:34.269Z,94506.81
2023-02-04T04:06:00.873Z,94497.59
2023-02-04T04:08:27.465Z,94479.31
2023-02-04T04:10:54.056Z,94473.53
2023-02-04T04:13:20.684Z,94472.09
2023-02-04T04:15:47.352Z,94481.59
2023-02-04T04:18:14.000Z,94463.75
2023-02-04T04:20:40.808Z,94479.44
2023-02-04T04:23:07.525Z,94465.31
2023-02-04T04:25:34.198Z,94449.94
2023-02-04T04:28:00.835Z,94485.88
2023-02-04T04:30:27.410Z,94493.19
2023-02-04T04:32:54.000Z,94492.22
2023-02-04T04:35:20.639Z,94463.97
2023-02-04T04:37:47.339Z,94485.91
2023-02-04T04:40:14.134Z,94489.91
2023-02-04T04:42:40.718Z,94485.03
2023-02-04T04:45:09.716Z,94477.94
2023-02-04T04:47:36.292Z,94481.28
2023-02-04T04:50:03.710Z,94482.66
2023-02-04T04:52:30.299Z,94469.97
2023-02-04T04:54:56.918Z,94491.84
2023-02-04T04:57:23.565Z,94473.47
2023-02-04T04:59:50.204Z,94499.53
2023-02-04T05:02:16.783Z,94504.44
2023-02-04T05:04:43.446Z,94492.84
2023-02-04T05:07:10.073Z,94493.56
2023-02-04T05:09:36.710Z,94482.28
2023-02-04T05:12:03.332Z,94498.84
2023-02-04T05:14:30.131Z,94503.03
2023-02-04T05:16:56.721Z,94525.31
2023-02-04T05:19:23.414Z,94527.38
2023-02-04T05:21:50.027Z,94533.19
2023-02-04T05:24:16.607Z,94520.44
2023-02-04T05:26:43.245Z,94527.13
2023-02-04T05:29:10.866Z,94541.28
2023-02-04T05:31:37.686Z,94564.28
2023-02-04T05:34:04.258Z,94548.78
2023-02-04T05:36:30.844Z,94578.94
2023-02-04T05:38:57.448Z,94567.84
2023-02-04T05:41:24.133Z,94560.28
2023-02-04T05:43:50.760Z,94562.97
2023-02-04T05:46:17.415Z,94551.75
2023-02-04T05:48:44.056Z,94533.91
2023-02-04T05:51:10.672Z,94535.63
2023-02-04T05:53:37.255Z,94538.38
2023-02-04T05:56:03.967Z,94505.31
2023-02-04T05:58:33.506Z,94508.19
2023-02-04T06:01:01.630Z,94502.13
2023-02-04T06:03:29.659Z,94531.81
2023-02-04T06:05:57.058Z,94523.69
2023-02-04T06:08:24.191Z,94514.66
2023-02-04T06:10:50.865Z,94540.53
2023-02-04T06:13:17.484Z,94542.84
2023-02-04T06:15:44.377Z,94548.00
2023-02-04T06:18:11.053Z,94559.38
2023-02-04T06:20:37.623Z,94558.84
2023-02-04T06:23:04.225Z,94548.84
2023-02-04T06:25:30.889Z,94552.84
2023-02-04T06:27:57.497Z,94554.72
2023-02-04T06:30:24.132Z,94535.47
2023-02-04T06:32:50.736Z,94560.22
2023-02-04T06:35:17.929Z,94559.66
2023-02-04T06:37:44.783Z,94564.28
2023-02-04T06:40:12.239Z,94571.31
2023-02-04T06:42:38.824Z,94558.63
2023-02-04T06:45:05.892Z,94569.94
2023-02-04T06:47:32.607Z,94534.22
2023-02-04T06:49:59.190Z,94571.59
2023-02-04T06:52:25.810Z,94572.22
2023-02-04T06:54:52.420Z,94579.78
2023-02-04T06:57:18.990Z,94582.31
2023-02-04T06:59:47.068Z,94562.97
2023-02-04T07:02:13.972Z,94564.81
2023-02-04T07:04:42.094Z,94574.41
2023-02-04T07:07:08.710Z,94563.06
2023-02-04T07:09:35.318Z,94570.81
2023-02-04T07:12:02.138Z,94564.81
2023-02-04T07:14:28.690Z,94560.41
2023-02-04T07:16:58.151Z,94569.81
2023-02-04T07:19:25.889Z,94546.41
2023-02-04T07:21:54.454Z,94560.84
2023-02-04T07:24:21.310Z,94560.50
2023-02-04T07:26:47.970Z,94546.56
2023-02-04T07:29:20.695Z,94540.56
2023-02-04T07:31:53.617Z,94532.97
2023-02-04T07:34:20.591Z,94548.09
2023-02-04T07:36:47.730Z,94549.31
2023-02-04T07:39:14.700Z,94538.09
2023-02-04T07:41:41.652Z,94549.00
2023-02-04T07:44:08.267Z,94538.22
2023-02-04T07:46:34.913Z,94527.44
2023-02-04T07:49:19.221Z,94532.41
2023-02-04T07:51:45.842Z,94538.81
2023-02-04T07:54:12.521Z,94536.97
2023-02-04T07:56:39.168Z,94533.47
2023-02-04T07:59:05.720Z,94528.06
2023-02-04T08:01:32.462Z,94548.41
2023-02-04T08:03:59.030Z,94551.00
2023-02-04T08:06:25.643Z,94543.09
2023-02-04T08:08:52.263Z,94542.53
2023-02-04T08:11:18.938Z,94536.53
2023-02-04T08:13:45.483Z,94543.13
2023-02-04T08:16:12.249Z,94544.91
2023-02-04T08:18:39.045Z,94537.25
2023-02-04T08:21:06.358Z,94545.81
2023-02-04T08:23:33.426Z,94522.94
2023-02-04T08:26:00.079Z,94550.09
2023-02-04T08:28:26.764Z,94548.31
2023-02-04T08:30:53.831Z,94538.16
2023-02-04T08:33:22.302Z,94523.34
2023-02-04T08:35:48.974Z,94530.88
2023-02-04T08:38:15.566Z,94531.91
2023-02-04T08:40:42.360Z,94543.31
2023-02-04T08:43:08.954Z,94542.44
2023-02-04T08:45:35.589Z,94531.75
2023-02-04T08:48:02.235Z,94543.56
2023-02-04T08:50:31.204Z,94515.03
2023-02-04T08:52:57.969Z,94515.31
2023-02-04T08:55:24.632Z,94538.09
2023-02-04T08:57:51.254Z,94535.41
2023-02-04T09:00:18.768Z,94506.34
2023-02-04T09:02:45.439Z,94530.56
2023-02-04T09:05:12.084Z,94524.47
2023-02-04T09:07:38.667Z,94515.63
2023-02-04T09:10:05.667Z,94519.34
2023-02-04T09:12:32.407Z,94487.84
2023-02-04T09:14:59.011Z,94506.75
2023-02-04T09:17:25.638Z,94508.16
2023-02-04T09:19:52.255Z,94500.88
2023-02-04T09:22:18.854Z,94508.44
2023-02-04T09:24:45.433Z,94516.31
2023-02-04T09:27:12.142Z,94510.81
2023-02-04T09:29:38.761Z,94520.41
2023-02-04T09:32:05.479Z,94513.50
2023-02-04T09:34:32.192Z,94518.56
2023-02-04T09:36:58.885Z,94513.47
2023-02-04T09:39:25.616Z,94488.78
2023-02-04T09:41:54.367Z,94519.09
2023-02-04T09:44:24.243Z,94514.97
2023-02-04T09:46:53.835Z,94506.06
2023-02-04T09:49:21.015Z,94489.91
2023-02-04T09:51:49.043Z,94496.81
2023-02-04T09:54:19.584Z,94480.31
2023-02-04T09:56:47.392Z,94485.13
2023-02-04T09:59:16.890Z,94494.53
2023-02-04T10:01:43.767Z,94471.59
2023-02-04T10:04:14.101Z,94485.69
2023-02-04T10:06:43.488Z,94475.59
2023-02-04T10:09:12.596Z,94479.47
2023-02-04T10:11:40.953Z,94469.13
2023-02-04T10:14:14.668Z,94450.19
2023-02-04T10:16:43.977Z,94474.50
2023-02-04T10:19:16.028Z,94466.66
2023-02-04T10:21:45.062Z,94462.03
2023-02-04T10:24:21.897Z,94455.56
2023-02-04T10:26:48.838Z,94464.78
2023-02-04T10:29:19.071Z,94453.97
2023-02-04T10:31:47.906Z,94438.50
2023-02-04T10:34:20.824Z,94449.88
2023-02-04T10:36:53.683Z,94455.13
2023-02-04T10:39:23.543Z,94439.25
2023-02-04T10:41:52.834Z,94441.94
2023-02-04T10:44:40.354Z,94443.88
2023-02-04T10:47:30.827Z,94443.72
2023-02-04T10:50:00.384Z,94432.94
2023-02-04T10:52:36.581Z,94431.25
2023-02-04T10:55:12.471Z,94440.22
2023-02-04T10:57:41.213Z,94424.59
2023-02-04T11:00:20.593Z,94445.72
2023-02-04T11:02:58.450Z,94414.59
2023-02-04T11:05:30.741Z,94414.06
2023-02-04T11:07:57.366Z,94423.03
2023-02-04T11:10:28.350Z,94429.59
2023-02-04T11:12:54.922Z,94432.84
2023-02-04T11:15:38.830Z,94424.56
2023-02-04T11:18:09.433Z,94418.56
2023-02-04T11:20:39.903Z,94413.75
2023-02-04T11:23:25.584Z,94409.09
2023-02-04T11:26:22.761Z,94420.56
2023-02-04T11:28:55.946Z,94413.16
2023-02-04T11:31:22.657Z,94425.03
2023-02-04T11:33:51.103Z,94422.16
2023-02-04T11:36:18.172Z,94431.41
2023-02-04T11:38:50.081Z,94414.03
2023-02-04T11:41:29.395Z,94423.94
2023-02-04T11:43:57.910Z,94425.69
2023-02-04T11:46:27.375Z,94416.53
2023-02-04T11:48:59.377Z,94403.06
2023-02-04T11:51:32.510Z,94420.22
2023-02-04T11:53:59.644Z,94409.19
2023-02-04T11:56:29.136Z,94416.53
2023-02-04T11:58:58.859Z,94381.81
2023-02-04T12:01:31.658Z,94409.06
2023-02-04T12:04:05.751Z,94373.69
2023-02-04T12:06:35.346Z,94342.94
2023-02-04T12:09:26.947Z,94412.34
2023-02-04T12:11:55.403Z,94398.88
2023-02-04T12:14:22.050Z,94413.75
2023-02-04T12:16:56.387Z,94419.84
2023-02-04T12:19:23.680Z,94413.75
2023-02-04T12:21:50.529Z,94364.66
2023-02-04T12:24:17.193Z,94389.94
2023-02-04T12:26:43.830Z,94394.09
2023-02-04T12:29:10.466Z,94399.19
2023-02-04T12:31:37.287Z,94371.69
2023-02-04T12:34:03.981Z,94366.22
2023-02-04T12:36:30.747Z,94385.88
2023-02-04T12:39:00.122Z,94391.06
2023-02-04T12:41:26.838Z,94358.28
2023-02-04T12:43:55.700Z,94388.50
2023-02-04T12:46:22.557Z,94373.03
2023-02-04T12:48:49.257Z,94387.00
2023-02-04T12:51:15.916Z,94370.81
2023-02-04T12:53:42.515Z,94383.00
2023-02-04T12:56:09.117Z,94376.22
2023-02-04T12:58:35.998Z,94389.06
2023-02-04T13:01:04.304Z,94366.31
2023-02-04T13:03:32.103Z,94398.97
2023-02-04T13:05:59.146Z,94378.16
2023-02-04T13:08:25.906Z,94388.81
2023-02-04T13:10:52.727Z,94397.22
2023-02-04T13:13:20.657Z,94405.09
2023-02-04T13:15:47.524Z,94404.00
2023-02-04T13:18:17.187Z,94394.88
2023-02-04T13:20:44.558Z,94406.66
2023-02-04T13:23:11.196Z,94396.59
2023-02-04T13:25:37.757Z,94415.53
2023-02-04T13:28:04.437Z,94401.56
2023-02-04T13:30:31.124Z,94379.31
2023-02-04T13:32:57.711Z,94416.50
2023-02-04T13:35:25.523Z,94392.31
2023-02-04T13:37:52.112Z,94421.25
2023-02-04T13:40:18.796Z,94410.44
2023-02-04T13:42:45.537Z,94431.66
2023-02-04T13:45:12.815Z,94425.50
2023-02-04T13:47:39.811Z,94419.97
2023-02-04T13:50:07.185Z,94431.75
2023-02-04T13:52:34.535Z,94414.50
2023-02-04T13:55:01.364Z,94417.00
2023-02-04T13:57:28.187Z,94426.13
2023-02-04T13:59:54.925Z,94417.19
2023-02-04T14:02:23.632Z,94422.03
2023-02-04T14:04:50.434Z,94424.19
2023-02-04T14:07:17.609Z,94415.22
2023-02-04T14:09:44.381Z,94392.72
2023-02-04T14:12:11.051Z,94426.09
2023-02-04T14:14:37.782Z,94420.34
2023-02-04T14:17:04.694Z,94422.22
2023-02-04T14:19:31.736Z,94376.59
2023-02-04T14:22:00.866Z,94455.28
2023-02-04T14:24:27.667Z,94391.31
2023-02-04T14:26:56.317Z,94464.66
2023-02-04T14:29:23.422Z,94444.06
2023-02-04T14:31:50.094Z,94439.59
2023-02-04T14:34:16.816Z,94420.00
2023-02-04T14:36:43.637Z,94485.34
2023-02-04T14:39:10.325Z,94450.53
2023-02-04T14:41:37.070Z,94466.75
2023-02-04T14:44:03.706Z,94473.56
2023-02-04T14:46:30.359Z,94479.59
2023-02-04T14:48:56.897Z,94437.53
2023-02-04T14:51:23.598Z,94478.94
2023-02-04T14:53:50.232Z,94478.47
2023-02-04T14:56:17.124Z,94479.22
2023-02-04T14:58:43.837Z,94466.16
2023-02-04T15:01:10.618Z,94496.44
2023-02-04T15:03:37.329Z,94467.53
2023-02-04T15:06:04.403Z,94503.19
2023-02-04T15:08:32.749Z,94511.75
2023-02-04T15:10:59.572Z,94508.28
2023-02-04T15:13:27.926Z,94495.81
2023-02-04T15:15:54.714Z,94507.09
2023-02-04T15:18:21.606Z,94525.44
2023-02-04T15:20:48.269Z,94501.19
2023-02-04T15:23:15.304Z,94504.81
2023-02-04T15:25:41.988Z,94521.50
2023-02-04T15:28:10.979Z,94530.19
2023-02-04T15:30:39.034Z,94535.81
2023-02-04T15:33:06.038Z,94533.03
2023-02-04T15:35:51.308Z,94499.63
2023-02-04T15:38:36.597Z,94547.00
2023-02-04T15:41:40.830Z,94553.28
2023-02-04T15:44:07.524Z,94554.22
2023-02-04T15:46:35.021Z,94545.13
2023-02-04T15:49:02.699Z,94538.66
2023-02-04T15:51:29.480Z,94556.16
2023-02-04T15:53:56.166Z,94565.81
2023-02-04T15:56:22.736Z,94549.72
2023-02-04T15:58:49.399Z,94578.91
2023-02-04T16:01:16.386Z,94584.56
2023-02-04T16:03:44.843Z,94530.50
2023-02-04T16:06:11.631Z,94592.03
2023-02-04T16:08:38.879Z,94599.81
2023-02-04T16:11:06.203Z,94543.78
2023-02-04T16:13:33.074Z,94591.25
2023-02-04T16:15:59.865Z,94598.63
2023-02-04T16:18:26.497Z,94601.25
2023-02-04T16:20:53.051Z,94605.59
2023-02-04T16:23:19.629Z,94565.78
2023-02-04T16:25:46.185Z,94620.34
2023-02-04T16:28:12.867Z,94631.28
2023-02-04T16:30:39.760Z,94646.56
2023-02-04T16:33:07.005Z,94664.69
2023-02-04T16:35:58.417Z,94674.88
2023-02-04T16:38:26.018Z,94655.63
2023-02-04T16:40:52.929Z,94647.03
2023-02-04T16:43:19.887Z,94661.88
2023-02-04T16:45:47.419Z,94649.38
2023-02-04T16:48:14.060Z,94668.88
2023-02-04T16:50:40.660Z,94663.53
2023-02-04T16:53:07.297Z,94672.66
2023-02-04T16:55:35.105Z,94652.25
2023-02-04T16:58:02.048Z,94679.63
2023-02-04T17:00:28.910Z,94632.34
2023-02-04T17:02:55.718Z,94673.50
2023-02-04T17:05:22.317Z,94638.97
2023-02-04T17:07:48.907Z,94646.91
2023-02-04T17:10:15.955Z,94677.81
2023-02-04T17:12:42.522Z,94654.88
2023-02-04T17:15:09.529Z,94642.28
2023-02-04T17:17:36.158Z,94664.59
2023-02-04T17:20:02.833Z,94658.78
2023-02-04T17:22:29.415Z,94671.06
2023-02-04T17:24:56.075Z,94666.88
2023-02-04T17:27:22.676Z,94646.81
2023-02-04T17:29:49.415Z,94674.50
2023-02-04T17:32:16.043Z,94670.44
2023-02-04T17:34:42.625Z,94698.34
2023-02-04T17:37:09.240Z,94700.66
2023-02-04T17:39:35.914Z,94696.13
2023-02-04T17:42:02.644Z,94682.69
2023-02-04T17:44:30.029Z,94721.19
2023-02-04T17:46:59.071Z,94724.66
2023-02-04T17:49:26.018Z,94708.25
2023-02-04T17:51:52.627Z,94679.81
2023-02-04T17:54:19.145Z,94736.53
2023-02-04T17:56:45.785Z,94666.47
2023-02-04T17:59:13.226Z,94728.44
2023-02-04T18:01:41.746Z,94716.16
2023-02-04T18:04:19.604Z,94701.06
2023-02-04T18:06:47.141Z,94727.47
2023-02-04T18:09:17.935Z,94715.38
2023-02-04T18:11:45.445Z,94708.84
2023-02-04T18:14:26.686Z,94748.94
2023-02-04T18:16:59.604Z,94719.91
2023-02-04T18:19:37.188Z,94725.28
2023-02-04T18:22:14.615Z,94756.16
2023-02-04T18:24:44.341Z,94759.25
2023-02-04T18:27:24.824Z,94758.84
2023-02-04T18:29:59.249Z,94706.34
2023-02-04T18:32:34.360Z,94723.06
2023-02-04T18:35:17.749Z,94756.09
2023-02-04T18:37:49.686Z,94760.97
2023-02-04T18:40:28.167Z,94769.19
2023-02-04T18:43:24.381Z,94769.41
2023-02-04T18:45:51.783Z,94695.31
2023-02-04T18:48:18.410Z,94763.34
2023-02-04T18:50:46.440Z,94748.53
2023-02-04T18:53:13.635Z,94758.34
2023-02-04T18:55:49.184Z,94756.06
2023-02-04T18:58:36.026Z,94715.38
2023-02-04T19:01:12.945Z,94740.44
2023-02-04T19:03:49.214Z,94748.84
2023-02-04T19:06:42.439Z,94752.19
2023-02-04T19:09:24.509Z,94753.34
2023-02-04T19:12:00.532Z,94775.22
2023-02-04T19:14:37.642Z,94766.38
2023-02-04T19:17:28.779Z,94679.72
2023-02-04T19:20:01.302Z,94743.69
2023-02-04T19:22:43.115Z,94764.28
2023-02-04T19:25:30.865Z,94770.44
2023-02-04T19:28:02.816Z,94716.03
2023-02-04T19:30:29.839Z,94768.19
2023-02-04T19:32:58.770Z,94771.25
2023-02-04T19:35:39.436Z,94745.16
2023-02-04T19:38:36.515Z,94779.03
2023-02-04T19:41:19.468Z,94719.31
2023-02-04T19:43:46.423Z,94726.28
2023-02-04T19:46:27.593Z,94750.91
2023-02-04T19:49:00.823Z,94662.31
2023-02-04T19:51:30.061Z,94752.41
2023-02-04T19:56:40.250Z,94738.78
2023-02-04T19:59:25.054Z,94792.50
2023-02-04T20:02:23.993Z,94740.47
2023-02-04T20:05:03.055Z,94713.75
2023-02-04T20:07:37.595Z,94717.28
2023-02-04T20:10:06.954Z,94809.13
2023-02-04T20:12:34.696Z,94798.09
2023-02-04T20:15:24.130Z,94763.78
2023-02-04T20:17:52.352Z,94796.22
2023-02-04T20:20:29.592Z,94833.22
2023-02-04T20:22:56.343Z,94822.19
2023-02-04T20:25:37.656Z,94824.09
2023-02-04T20:28:33.677Z,94762.78
2023-02-04T20:31:01.823Z,94826.13
2023-02-04T20:33:31.302Z,94795.25
2023-02-04T20:36:22.725Z,94826.09
2023-02-04T20:38:49.477Z,94841.41
2023-02-04T20:41:21.052Z,94845.22
2023-02-04T20:43:52.892Z,94788.44
2023-02-04T20:46:26.675Z,94803.69
2023-02-04T20:48:53.482Z,94772.09
2023-02-04T20:51:26.782Z,94839.56
2023-02-04T20:53:58.119Z,94800.31
2023-02-04T20:56:40.263Z,94832.72
2023-02-04T20:59:13.052Z,94863.63
2023-02-04T21:01:44.540Z,94857.16
2023-02-04T21:04:37.040Z,94873.94
2023-02-04T21:07:14.035Z,94875.47
2023-02-04T21:09:41.410Z,94744.63
2023-02-04T21:12:09.618Z,94722.16
2023-02-04T21:14:36.545Z,94823.97
2023-02-04T21:17:04.341Z,94798.00
2023-02-04T21:19:31.275Z,94772.44
2023-02-04T21:21:58.222Z,94765.22
2023-02-04T21:24:26.488Z,94809.47
2023-02-04T21:26:53.971Z,94748.78
2023-02-04T21:29:20.819Z,94790.00
2023-02-04T21:31:47.871Z,94754.53
2023-02-04T21:34:15.876Z,94860.59
2023-02-04T21:36:42.658Z,94788.50
2023-02-04T21:39:09.775Z,94885.78
2023-02-04T21:41:36.504Z,94867.06
2023-02-04T21:44:03.628Z,94751.44
2023-02-04T21:46:30.654Z,94814.41
2023-02-04T21:48:57.366Z,94798.78
2023-02-04T21:51:24.960Z,94818.59
2023-02-04T21:53:52.337Z,94783.50
2023-02-04T21:56:19.054Z,94797.97
2023-02-04T21:58:45.733Z,94876.56
2023-02-04T22:01:12.512Z,94927.00
2023-02-04T22:03:39.617Z,94851.38
2023-02-04T22:06:08.674Z,94946.81
2023-02-04T22:08:35.470Z,94940.31
2023-02-04T22:11:02.292Z,94891.78
2023-02-04T22:13:29.060Z,94914.72
2023-02-04T22:15:57.425Z,94960.47
2023-02-04T22:18:24.328Z,94886.75
2023-02-04T22:20:51.654Z,94916.13
2023-02-04T22:23:18.424Z,94798.06
2023-02-04T22:25:45.340Z,94920.66
2023-02-04T22:28:12.336Z,94833.94
2023-02-04T22:30:39.794Z,94902.63
2023-02-04T22:33:09.412Z,94815.09
2023-02-04T22:35:37.426Z,94852.63
2023-02-04T22:38:04.373Z,94832.31
2023-02-04T22:40:31.241Z,94960.75
2023-02-04T22:42:58.768Z,94991.63
2023-02-04T22:45:25.660Z,94903.81
2023-02-04T22:47:52.535Z,94943.19
2023-02-04T22:50:19.227Z,94921.75
2023-02-04T22:52:46.092Z,94857.59
2023-02-04T22:55:12.920Z,94929.75
2023-02-04T22:57:39.550Z,94869.31
2023-02-04T23:00:09.326Z,94965.66
2023-02-04T23:02:36.405Z,94990.88
2023-02-04T23:05:03.699Z,94887.63
2023-02-04T23:07:34.588Z,94946.00
2023-02-04T23:10:01.235Z,94894.38
2023-02-04T23:12:27.870Z,95022.78
2023-02-04T23:14:54.500Z,94989.91
2023-02-04T23:17:21.102Z,94998.28
2023-02-04T23:19:47.720Z,94978.41
2023-02-04T23:22:15.383Z,95020.50
2023-02-04T23:24:43.049Z,95015.88
2023-02-04T23:27:11.573Z,95010.53
2023-02-04T23:29:39.779Z,94873.56
2023-02-04T23:32:08.599Z,94997.50
2023-02-04T23:34:35.531Z,94995.97
2023-02-04T23:37:02.242Z,95019.22
2023-02-04T23:39:29.300Z,94999.72
2023-02-04T23:41:55.887Z,94927.00
2023-02-04T23:44:22.631Z,95022.50
2023-02-04T23:46:49.281Z,95019.81
2023-02-04T23:49:16.214Z,94978.66
2023-02-04T23:51:43.120Z,95044.09
2023-02-04T23:54:10.141Z,94901.72
2023-02-04T23:56:37.228Z,95028.94
2023-02-04T23:59:04.348Z,94887.00
